TimeCDT,TemperatureF,Dew PointF,Humidity,Sea Level PressureIn,VisibilityMPH,Wind Direction,Wind SpeedMPH,Gust SpeedMPH,PrecipitationIn,Events,Conditions,WindDirDegrees,DateUTC
12:15 AM,32.0,28.4,87,29.84,10.0,West,3.5,-,N/A,,Clear,270,2013-10-20 05:15:00
12:35 AM,30.2,28.4,93,29.84,10.0,SW,3.5,-,N/A,,Clear,230,2013-10-20 05:35:00
12:55 AM,30.2,28.4,93,29.84,10.0,WSW,3.5,-,N/A,,Clear,250,2013-10-20 05:55:00
1:15 AM,30.2,28.4,93,29.84,10.0,Calm,Calm,-,N/A,,Clear,0,2013-10-20 06:15:00
1:35 AM,30.2,28.4,93,29.84,10.0,SW,5.8,-,N/A,,Scattered Clouds,230,2013-10-20 06:35:00
1:55 AM,30.2,28.4,93,29.84,10.0,SW,5.8,-,N/A,,Scattered Clouds,220,2013-10-20 06:55:00
2:15 AM,30.2,28.4,93,29.84,10.0,Calm,Calm,-,N/A,,Mostly Cloudy,0,2013-10-20 07:15:00
2:35 AM,30.2,28.4,93,29.83,10.0,Calm,Calm,-,N/A,,Mostly Cloudy,0,2013-10-20 07:35:00
2:55 AM,30.2,28.4,93,29.82,10.0,Calm,Calm,-,N/A,,Mostly Cloudy,0,2013-10-20 07:55:00
3:15 AM,28.4,28.4,100,29.82,10.0,Calm,Calm,-,N/A,,Partly Cloudy,0,2013-10-20 08:15:00
3:35 AM,28.4,28.4,100,29.82,10.0,Calm,Calm,-,N/A,,Clear,0,2013-10-20 08:35:00
3:55 AM,28.4,28.4,100,29.82,10.0,Calm,Calm,-,N/A,,Partly Cloudy,0,2013-10-20 08:55:00
4:15 AM,30.2,28.4,93,29.82,10.0,Calm,Calm,-,N/A,,Mostly Cloudy,0,2013-10-20 09:15:00
4:35 AM,30.2,28.4,93,29.83,10.0,South,4.6,-,N/A,,Overcast,180,2013-10-20 09:35:00
4:55 AM,30.2,30.2,100,29.82,10.0,Calm,Calm,-,N/A,,Overcast,0,2013-10-20 09:55:00
5:15 AM,32.0,30.2,93,29.82,10.0,Calm,Calm,-,N/A,,Overcast,0,2013-10-20 10:15:00
5:35 AM,32.0,30.2,93,29.81,10.0,ESE,3.5,-,N/A,,Overcast,110,2013-10-20 10:35:00
5:55 AM,32.0,30.2,93,29.81,10.0,Calm,Calm,-,N/A,,Overcast,0,2013-10-20 10:55:00
6:15 AM,32.0,32.0,100,29.80,10.0,Calm,Calm,-,N/A,,Overcast,0,2013-10-20 11:15:00
6:35 AM,32.0,32.0,100,29.80,10.0,Calm,Calm,-,N/A,,Mostly Cloudy,0,2013-10-20 11:35:00
6:55 AM,32.0,32.0,100,29.80,10.0,East,4.6,-,N/A,,Overcast,90,2013-10-20 11:55:00
7:15 AM,32.0,32.0,100,29.79,10.0,East,4.6,-,N/A,,Overcast,80,2013-10-20 12:15:00
7:35 AM,33.8,32.0,93,29.77,10.0,ESE,5.8,-,N/A,,Overcast,110,2013-10-20 12:35:00
7:55 AM,33.8,30.2,87,29.77,10.0,ESE,5.8,-,N/A,,Overcast,110,2013-10-20 12:55:00
8:15 AM,35.6,32.0,87,29.76,10.0,ESE,6.9,-,N/A,,Overcast,110,2013-10-20 13:15:00
8:35 AM,35.6,32.0,87,29.77,10.0,ESE,5.8,-,N/A,,Overcast,120,2013-10-20 13:35:00
8:55 AM,35.6,32.0,87,29.77,10.0,SE,9.2,-,N/A,,Mostly Cloudy,130,2013-10-20 13:55:00
9:15 AM,37.4,33.8,87,29.77,10.0,SE,6.9,-,N/A,,Scattered Clouds,140,2013-10-20 14:15:00
9:35 AM,37.4,33.8,87,29.76,10.0,SE,9.2,-,N/A,,Partly Cloudy,140,2013-10-20 14:35:00
9:55 AM,39.2,33.8,81,29.76,10.0,SSE,8.1,15.0,N/A,,Light Drizzle,150,2013-10-20 14:55:00
10:15 AM,39.2,35.6,87,29.76,10.0,SSE,9.2,-,N/A,,Scattered Clouds,150,2013-10-20 15:15:00
10:35 AM,41.0,35.6,81,29.74,10.0,SE,11.5,-,N/A,,Mostly Cloudy,140,2013-10-20 15:35:00
10:55 AM,42.8,35.6,76,29.72,10.0,SE,15.0,20.7,N/A,,Mostly Cloudy,140,2013-10-20 15:55:00
11:15 AM,42.8,35.6,76,29.72,10.0,SSE,18.4,24.2,N/A,,Mostly Cloudy,150,2013-10-20 16:15:00
11:35 AM,44.6,35.6,71,29.72,10.0,SSE,17.3,-,N/A,,Scattered Clouds,150,2013-10-20 16:35:00
11:55 AM,46.4,37.4,71,29.72,10.0,South,13.8,-,N/A,,Partly Cloudy,170,2013-10-20 16:55:00
12:15 PM,46.4,37.4,71,29.72,10.0,South,11.5,18.4,N/A,,Scattered Clouds,170,2013-10-20 17:15:00
12:35 PM,46.4,37.4,71,29.71,10.0,South,16.1,21.9,N/A,,Scattered Clouds,170,2013-10-20 17:35:00
12:55 PM,48.2,37.4,66,29.70,10.0,South,11.5,18.4,N/A,,Scattered Clouds,180,2013-10-20 17:55:00
1:15 PM,46.4,37.4,71,29.70,10.0,South,10.4,16.1,N/A,,Scattered Clouds,190,2013-10-20 18:15:00
1:35 PM,48.2,39.2,71,29.70,10.0,SSW,8.1,-,N/A,,Mostly Cloudy,200,2013-10-20 18:35:00
1:55 PM,48.2,41.0,76,29.70,10.0,SSW,9.2,-,N/A,,Mostly Cloudy,200,2013-10-20 18:55:00
2:15 PM,50.0,41.0,71,29.69,10.0,SSW,8.1,15.0,N/A,,Mostly Cloudy,210,2013-10-20 19:15:00
2:35 PM,51.8,42.8,71,29.69,10.0,SSW,8.1,-,N/A,,Partly Cloudy,210,2013-10-20 19:35:00
2:55 PM,53.6,42.8,67,29.68,10.0,SW,11.5,-,N/A,,Partly Cloudy,220,2013-10-20 19:55:00
3:15 PM,51.8,42.8,71,29.67,10.0,SSW,9.2,-,N/A,,Partly Cloudy,210,2013-10-20 20:15:00
3:35 PM,51.8,41.0,67,29.69,10.0,SSW,8.1,-,N/A,,Scattered Clouds,210,2013-10-20 20:35:00
3:55 PM,53.6,41.0,62,29.69,10.0,SSW,12.7,-,N/A,,Partly Cloudy,200,2013-10-20 20:55:00
4:15 PM,55.4,44.6,67,29.69,10.0,SSW,11.5,-,N/A,,Clear,210,2013-10-20 21:15:00
4:35 PM,53.6,42.8,67,29.70,10.0,SSW,11.5,-,N/A,,Partly Cloudy,210,2013-10-20 21:35:00
4:55 PM,55.4,42.8,63,29.70,10.0,SSW,9.2,-,N/A,,Mostly Cloudy,210,2013-10-20 21:55:00
5:15 PM,55.4,42.8,63,29.69,10.0,SSW,8.1,15.0,N/A,,Overcast,210,2013-10-20 22:15:00
5:35 PM,53.6,42.8,67,29.69,10.0,SW,8.1,-,N/A,,Overcast,220,2013-10-20 22:35:00
5:55 PM,53.6,42.8,67,29.70,10.0,SW,6.9,-,N/A,,Overcast,230,2013-10-20 22:55:00
6:15 PM,53.6,42.8,67,29.71,10.0,West,6.9,-,N/A,,Overcast,260,2013-10-20 23:15:00
6:35 PM,55.4,39.2,54,29.73,10.0,WNW,11.5,-,N/A,,Overcast,290,2013-10-20 23:35:00
6:55 PM,53.6,39.2,58,29.74,10.0,WNW,15.0,23.0,N/A,,Overcast,300,2013-10-20 23:55:00
7:15 PM,51.8,39.2,62,29.75,10.0,West,12.7,-,N/A,,Mostly Cloudy,280,2013-10-21 00:15:00
7:35 PM,51.8,39.2,62,29.75,10.0,West,13.8,23.0,N/A,,Mostly Cloudy,280,2013-10-21 00:35:00
7:55 PM,50.0,39.2,66,29.76,10.0,WNW,13.8,-,N/A,,Partly Cloudy,290,2013-10-21 00:55:00
8:15 PM,50.0,39.2,66,29.77,10.0,West,12.7,18.4,N/A,,Mostly Cloudy,280,2013-10-21 01:15:00
8:35 PM,50.0,39.2,66,29.77,10.0,WNW,13.8,21.9,N/A,,Overcast,290,2013-10-21 01:35:00
8:55 PM,50.0,41.0,71,29.78,10.0,WNW,10.4,-,N/A,,Overcast,290,2013-10-21 01:55:00
9:15 PM,50.0,41.0,71,29.79,10.0,WNW,13.8,25.3,N/A,,Overcast,290,2013-10-21 02:15:00
9:35 PM,48.2,41.0,76,29.80,10.0,WNW,17.3,25.3,N/A,,Overcast,300,2013-10-21 02:35:00
9:55 PM,46.4,39.2,76,29.82,10.0,NW,15.0,28.8,N/A,,Overcast,310,2013-10-21 02:55:00
10:15 PM,46.4,39.2,76,29.83,10.0,NW,13.8,25.3,N/A,,Overcast,310,2013-10-21 03:15:00
10:35 PM,44.6,39.2,81,29.84,10.0,NW,17.3,24.2,N/A,,Overcast,310,2013-10-21 03:35:00
10:55 PM,44.6,37.4,76,29.84,10.0,NW,15.0,23.0,N/A,,Overcast,310,2013-10-21 03:55:00
11:15 PM,42.8,37.4,81,29.85,10.0,NW,17.3,32.2,N/A,,Overcast,320,2013-10-21 04:15:00
11:35 PM,41.0,35.6,81,29.87,10.0,NW,16.1,25.3,N/A,,Overcast,320,2013-10-21 04:35:00
11:55 PM,41.0,35.6,81,29.88,10.0,NW,10.4,17.3,N/A,,Overcast,310,2013-10-21 04:55:00